LAP002 SGAS-SUMU
Flight info
| Callsign | LAP002 |
|---|---|
| Flight time | N/A |
| Altitude | 36000 |
| Route | ITAPE ASATI UP526 GEMSU/N0433F350 UP526 MONSA |
| Aircraft | B733/M-SDE2E3FHIRW/S |
Departure
| Time | 2026-05-07 15:59 |
|---|---|
| Airport | Silvio Pettirossi International Airport (SGAS) |
Arrival
| Time | N/A |
|---|---|
| Airport | Carrasco General Cesáreo L. Berisso International Airport (SUMU) |
| Time | Latitude | Longitude | Altitude | Speed | Heading |
|---|---|---|---|---|---|
| 2026-05-07 15:59 | -25.23011 | -57.46393 | 4423 ft | 258 kts | 185° |
| 2026-05-07 15:59 | -25.24744 | -57.46944 | 5194 ft | 262 kts | 200° |
| 2026-05-07 15:59 | -25.26516 | -57.47426 | 5996 ft | 263 kts | 185° |
| 2026-05-07 16:00 | -25.28333 | -57.47366 | 6778 ft | 264 kts | 170° |
| 2026-05-07 16:00 | -25.30171 | -57.47029 | 7552 ft | 267 kts | 169° |
| 2026-05-07 16:00 | -25.32020 | -57.46687 | 8306 ft | 270 kts | 169° |
| 2026-05-07 16:00 | -25.33885 | -57.46348 | 9051 ft | 272 kts | 169° |
| 2026-05-07 16:01 | -25.35769 | -57.46009 | 9780 ft | 275 kts | 170° |
| 2026-05-07 16:01 | -25.37670 | -57.45670 | 10493 ft | 277 kts | 170° |
| 2026-05-07 16:01 | -25.39579 | -57.45330 | 11185 ft | 280 kts | 170° |
| 2026-05-07 16:01 | -25.41542 | -57.44981 | 11870 ft | 283 kts | 170° |
| 2026-05-07 16:02 | -25.43485 | -57.44637 | 12509 ft | 286 kts | 170° |
| 2026-05-07 16:02 | -25.45475 | -57.44284 | 13096 ft | 291 kts | 170° |
| 2026-05-07 16:02 | -25.47490 | -57.43927 | 13672 ft | 296 kts | 170° |
| 2026-05-07 16:02 | -25.49559 | -57.43560 | 14248 ft | 300 kts | 170° |
| 2026-05-07 16:03 | -25.51636 | -57.43192 | 14807 ft | 305 kts | 170° |
| 2026-05-07 16:03 | -25.53743 | -57.42819 | 15358 ft | 309 kts | 170° |
| 2026-05-07 16:03 | -25.55924 | -57.42473 | 15902 ft | 314 kts | 176° |
| 2026-05-07 16:03 | -25.58091 | -57.42650 | 16418 ft | 317 kts | 192° |
| 2026-05-07 16:04 | -25.60342 | -57.43144 | 16680 ft | 334 kts | 193° |
| 2026-05-07 16:04 | -25.62723 | -57.43676 | 16728 ft | 357 kts | 193° |
| 2026-05-07 16:04 | -25.65235 | -57.44224 | 16759 ft | 379 kts | 192° |
| 2026-05-07 16:04 | -25.67930 | -57.44803 | 16882 ft | 397 kts | 192° |
| 2026-05-07 16:05 | -25.70678 | -57.45387 | 17307 ft | 405 kts | 192° |
| 2026-05-07 16:05 | -25.73443 | -57.45974 | 17836 ft | 410 kts | 192° |
| 2026-05-07 16:05 | -25.76281 | -57.46578 | 18384 ft | 414 kts | 193° |
| 2026-05-07 16:05 | -25.79143 | -57.47185 | 18920 ft | 418 kts | 193° |
| 2026-05-07 16:06 | -25.82012 | -57.47796 | 19444 ft | 422 kts | 193° |
| 2026-05-07 16:06 | -25.84906 | -57.48412 | 19968 ft | 426 kts | 193° |
| 2026-05-07 16:06 | -25.87843 | -57.49037 | 20485 ft | 430 kts | 194° |
| 2026-05-07 16:06 | -25.90815 | -57.49670 | 20996 ft | 434 kts | 194° |
| 2026-05-07 16:07 | -25.93774 | -57.50300 | 21493 ft | 437 kts | 194° |
| 2026-05-07 16:07 | -25.96799 | -57.50945 | 21989 ft | 441 kts | 194° |
| 2026-05-07 16:07 | -25.99825 | -57.51590 | 22479 ft | 444 kts | 195° |
| 2026-05-07 16:07 | -26.02856 | -57.52237 | 22950 ft | 447 kts | 195° |
| 2026-05-07 16:08 | -26.05943 | -57.52896 | 23420 ft | 450 kts | 195° |
| 2026-05-07 16:08 | -26.09094 | -57.53170 | 23863 ft | 461 kts | 178° |
| 2026-05-07 16:08 | -26.12322 | -57.52516 | 24215 ft | 469 kts | 169° |
| 2026-05-07 16:08 | -26.15511 | -57.51679 | 24642 ft | 472 kts | 169° |
| 2026-05-07 16:09 | -26.18763 | -57.50859 | 25078 ft | 474 kts | 171° |
| 2026-05-07 16:09 | -26.21970 | -57.50083 | 25487 ft | 477 kts | 171° |
| 2026-05-07 16:09 | -26.25273 | -57.49297 | 25892 ft | 480 kts | 171° |
| 2026-05-07 16:09 | -26.28552 | -57.48519 | 26285 ft | 483 kts | 172° |
| 2026-05-07 16:10 | -26.31863 | -57.47733 | 26674 ft | 485 kts | 172° |
| 2026-05-07 16:10 | -26.35185 | -57.46945 | 27061 ft | 488 kts | 172° |
| 2026-05-07 16:10 | -26.38517 | -57.46153 | 27448 ft | 491 kts | 172° |
| 2026-05-07 16:10 | -26.41874 | -57.45355 | 27854 ft | 493 kts | 173° |
| 2026-05-07 16:11 | -26.45263 | -57.44548 | 28369 ft | 492 kts | 173° |
| 2026-05-07 16:11 | -26.48565 | -57.43761 | 28936 ft | 489 kts | 173° |
| 2026-05-07 16:11 | -26.51890 | -57.42969 | 29490 ft | 486 kts | 174° |
| 2026-05-07 16:11 | -26.55226 | -57.42174 | 30006 ft | 484 kts | 174° |
| 2026-05-07 16:12 | -26.58548 | -57.41383 | 30480 ft | 483 kts | 175° |
| 2026-05-07 16:12 | -26.61830 | -57.40600 | 30936 ft | 482 kts | 175° |
| 2026-05-07 16:12 | -26.65120 | -57.39815 | 31398 ft | 480 kts | 175° |
| 2026-05-07 16:12 | -26.68394 | -57.39033 | 31872 ft | 478 kts | 176° |
| 2026-05-07 16:13 | -26.71614 | -57.38263 | 32343 ft | 475 kts | 176° |
| 2026-05-07 16:13 | -26.74879 | -57.37483 | 32801 ft | 473 kts | 176° |
| 2026-05-07 16:13 | -26.78074 | -57.36718 | 33230 ft | 471 kts | 177° |
| 2026-05-07 16:13 | -26.81289 | -57.35949 | 33669 ft | 468 kts | 177° |
| 2026-05-07 16:14 | -26.84487 | -57.35183 | 34086 ft | 466 kts | 178° |
| 2026-05-07 16:14 | -26.87682 | -57.34412 | 34442 ft | 465 kts | 177° |
| 2026-05-07 16:14 | -26.90861 | -57.33637 | 34728 ft | 465 kts | 177° |
| 2026-05-07 16:14 | -26.94000 | -57.32878 | 34929 ft | 465 kts | 176° |
| 2026-05-07 16:15 | -26.97195 | -57.32108 | 34998 ft | 463 kts | 176° |
| 2026-05-07 16:15 | -27.03444 | -57.30603 | 34924 ft | 456 kts | 176° |
| 2026-05-07 16:16 | -27.09656 | -57.29111 | 34917 ft | 455 kts | 176° |
| 2026-05-07 16:16 | -27.15903 | -57.27609 | 34926 ft | 456 kts | 176° |
| 2026-05-07 16:17 | -27.22138 | -57.26107 | 34938 ft | 457 kts | 175° |
| 2026-05-07 16:17 | -27.28384 | -57.24599 | 34952 ft | 457 kts | 175° |
| 2026-05-07 16:18 | -27.34621 | -57.23092 | 34967 ft | 456 kts | 175° |
| 2026-05-07 16:18 | -27.40850 | -57.21585 | 34970 ft | 456 kts | 175° |
| 2026-05-07 16:19 | -27.47109 | -57.20165 | 34970 ft | 452 kts | 180° |
| 2026-05-07 16:19 | -27.53329 | -57.19309 | 34969 ft | 450 kts | 181° |
| 2026-05-07 16:20 | -27.59645 | -57.18459 | 34970 ft | 451 kts | 181° |
| 2026-05-07 16:20 | -27.65899 | -57.17595 | 34969 ft | 451 kts | 181° |
| 2026-05-07 16:21 | -27.72203 | -57.16721 | 34973 ft | 451 kts | 181° |
| 2026-05-07 16:21 | -27.78477 | -57.15852 | 34963 ft | 451 kts | 181° |
| 2026-05-07 16:22 | -27.84743 | -57.14981 | 34966 ft | 451 kts | 181° |
| 2026-05-07 16:22 | -27.91025 | -57.14108 | 34961 ft | 451 kts | 181° |
| 2026-05-07 16:23 | -27.97308 | -57.13234 | 34969 ft | 451 kts | 181° |
| 2026-05-07 16:23 | -28.03580 | -57.12360 | 34970 ft | 451 kts | 181° |
| 2026-05-07 16:24 | -28.09859 | -57.11485 | 34968 ft | 451 kts | 181° |
| 2026-05-07 16:24 | -28.16129 | -57.10609 | 34965 ft | 451 kts | 181° |
| 2026-05-07 16:25 | -28.22393 | -57.09733 | 34972 ft | 452 kts | 181° |
| 2026-05-07 16:25 | -28.28687 | -57.08852 | 34972 ft | 452 kts | 181° |
| 2026-05-07 16:26 | -28.34995 | -57.07967 | 34969 ft | 451 kts | 181° |
| 2026-05-07 16:26 | -28.41258 | -57.07089 | 34969 ft | 451 kts | 181° |
| 2026-05-07 16:27 | -28.47539 | -57.06207 | 34970 ft | 452 kts | 181° |
| 2026-05-07 16:27 | -28.53835 | -57.05321 | 34973 ft | 452 kts | 181° |
| 2026-05-07 16:28 | -28.60111 | -57.04437 | 34966 ft | 452 kts | 181° |
| 2026-05-07 16:28 | -28.66394 | -57.03552 | 34969 ft | 452 kts | 181° |
| 2026-05-07 16:29 | -28.72729 | -57.02657 | 34972 ft | 452 kts | 181° |
| 2026-05-07 16:29 | -28.78984 | -57.01774 | 34968 ft | 452 kts | 181° |
| 2026-05-07 16:30 | -28.85299 | -57.00880 | 34973 ft | 452 kts | 181° |
| 2026-05-07 16:30 | -28.91567 | -56.99992 | 34969 ft | 452 kts | 181° |
| 2026-05-07 16:31 | -28.97896 | -56.99094 | 34972 ft | 452 kts | 181° |
| 2026-05-07 16:31 | -29.04149 | -56.98206 | 34973 ft | 451 kts | 182° |
| 2026-05-07 16:32 | -29.10467 | -56.97307 | 34965 ft | 450 kts | 183° |
| 2026-05-07 16:32 | -29.16704 | -56.96418 | 34965 ft | 448 kts | 183° |
| 2026-05-07 16:33 | -29.22929 | -56.95532 | 34965 ft | 449 kts | 183° |
| 2026-05-07 16:33 | -29.29159 | -56.94642 | 34964 ft | 449 kts | 183° |
| 2026-05-07 16:34 | -29.35430 | -56.93746 | 34934 ft | 449 kts | 183° |
| 2026-05-07 16:34 | -29.41636 | -56.92858 | 34890 ft | 449 kts | 183° |
| 2026-05-07 16:35 | -29.47891 | -56.91962 | 34852 ft | 449 kts | 183° |
| 2026-05-07 16:35 | -29.54130 | -56.91067 | 34848 ft | 449 kts | 183° |
| 2026-05-07 16:36 | -29.60362 | -56.90173 | 34847 ft | 450 kts | 183° |
| 2026-05-07 16:36 | -29.66589 | -56.89278 | 34843 ft | 450 kts | 183° |
| 2026-05-07 16:37 | -29.72840 | -56.88378 | 34838 ft | 450 kts | 183° |
| 2026-05-07 16:37 | -29.79058 | -56.87482 | 34835 ft | 450 kts | 183° |
| 2026-05-07 16:38 | -29.85325 | -56.86577 | 34835 ft | 450 kts | 183° |
| 2026-05-07 16:38 | -29.91574 | -56.85674 | 34835 ft | 450 kts | 183° |
| 2026-05-07 16:39 | -29.97790 | -56.84774 | 34853 ft | 449 kts | 183° |
| 2026-05-07 16:39 | -30.04063 | -56.83866 | 34889 ft | 449 kts | 183° |
| 2026-05-07 16:40 | -30.10275 | -56.82966 | 34920 ft | 449 kts | 183° |
| 2026-05-07 16:40 | -30.16528 | -56.82057 | 34918 ft | 449 kts | 183° |
| 2026-05-07 16:41 | -30.22766 | -56.81151 | 34915 ft | 449 kts | 183° |
| 2026-05-07 16:41 | -30.28998 | -56.80244 | 34910 ft | 449 kts | 183° |
| 2026-05-07 16:42 | -30.35217 | -56.79338 | 34905 ft | 449 kts | 183° |
| 2026-05-07 16:42 | -30.41438 | -56.78431 | 34901 ft | 449 kts | 183° |
| 2026-05-07 16:43 | -30.47677 | -56.77520 | 34897 ft | 450 kts | 183° |
| 2026-05-07 16:43 | -30.53922 | -56.76606 | 34893 ft | 450 kts | 183° |
| 2026-05-07 16:44 | -30.60169 | -56.75692 | 34889 ft | 450 kts | 183° |
| 2026-05-07 16:44 | -30.66399 | -56.74778 | 34885 ft | 450 kts | 183° |
| 2026-05-07 16:45 | -30.72685 | -56.73856 | 34881 ft | 450 kts | 183° |
| 2026-05-07 16:45 | -30.78909 | -56.72941 | 34877 ft | 450 kts | 183° |
| 2026-05-07 16:46 | -30.85168 | -56.72020 | 34873 ft | 450 kts | 183° |
| 2026-05-07 16:46 | -30.91435 | -56.71096 | 34869 ft | 450 kts | 183° |
| 2026-05-07 16:47 | -30.97661 | -56.70177 | 34866 ft | 449 kts | 184° |
| 2026-05-07 16:47 | -31.03878 | -56.69258 | 34861 ft | 448 kts | 185° |
| 2026-05-07 16:48 | -31.10116 | -56.68336 | 34854 ft | 447 kts | 185° |
| 2026-05-07 16:48 | -31.16303 | -56.67417 | 34847 ft | 447 kts | 185° |
| 2026-05-07 16:49 | -31.22519 | -56.66495 | 34849 ft | 448 kts | 185° |
| 2026-05-07 16:49 | -31.28763 | -56.65567 | 34845 ft | 448 kts | 185° |
| 2026-05-07 16:50 | -31.35001 | -56.64640 | 34839 ft | 448 kts | 185° |
| 2026-05-07 16:50 | -31.41187 | -56.63718 | 34835 ft | 448 kts | 185° |
| 2026-05-07 16:51 | -31.47444 | -56.62785 | 34835 ft | 448 kts | 185° |
| 2026-05-07 16:51 | -31.53627 | -56.61862 | 34835 ft | 448 kts | 185° |
| 2026-05-07 16:52 | -31.59852 | -56.60931 | 34835 ft | 448 kts | 185° |
| 2026-05-07 16:52 | -31.66083 | -56.59998 | 34835 ft | 448 kts | 185° |
| 2026-05-07 16:53 | -31.72309 | -56.59065 | 34844 ft | 448 kts | 185° |
| 2026-05-07 16:53 | -31.78550 | -56.58128 | 34876 ft | 448 kts | 185° |
| 2026-05-07 16:54 | -31.84733 | -56.57198 | 34906 ft | 448 kts | 185° |
| 2026-05-07 16:54 | -31.91003 | -56.56254 | 34921 ft | 448 kts | 185° |
| 2026-05-07 16:55 | -31.97185 | -56.55322 | 34931 ft | 448 kts | 185° |
| 2026-05-07 16:55 | -32.03397 | -56.54384 | 34943 ft | 448 kts | 185° |
| 2026-05-07 16:56 | -32.09637 | -56.53441 | 34944 ft | 448 kts | 185° |
| 2026-05-07 16:56 | -32.18953 | -56.52028 | 34944 ft | 448 kts | 185° |
| 2026-05-07 16:57 | -32.25195 | -56.51082 | 34944 ft | 448 kts | 185° |
| 2026-05-07 16:57 | -32.31408 | -56.50137 | 34944 ft | 448 kts | 185° |
| 2026-05-07 16:58 | -32.37601 | -56.49195 | 34943 ft | 448 kts | 185° |
| 2026-05-07 16:58 | -32.43857 | -56.48243 | 34943 ft | 448 kts | 185° |
| 2026-05-07 16:59 | -32.50062 | -56.47296 | 34943 ft | 448 kts | 185° |
| 2026-05-07 16:59 | -32.56298 | -56.46344 | 34943 ft | 448 kts | 185° |
| 2026-05-07 17:00 | -32.62527 | -56.45391 | 34943 ft | 448 kts | 185° |
| 2026-05-07 17:00 | -32.68717 | -56.44443 | 34943 ft | 448 kts | 185° |
| 2026-05-07 17:01 | -32.74977 | -56.43482 | 34943 ft | 448 kts | 185° |
| 2026-05-07 17:01 | -32.81213 | -56.42524 | 34943 ft | 448 kts | 185° |
| 2026-05-07 17:02 | -32.87432 | -56.41568 | 34943 ft | 448 kts | 185° |
| 2026-05-07 17:02 | -32.93660 | -56.40608 | 34943 ft | 448 kts | 185° |
| 2026-05-07 17:03 | -32.99888 | -56.39647 | 34948 ft | 447 kts | 184° |
| 2026-05-07 17:03 | -33.06035 | -56.38695 | 34947 ft | 443 kts | 184° |
| 2026-05-07 17:04 | -33.12205 | -56.37741 | 34896 ft | 439 kts | 183° |
| 2026-05-07 17:04 | -33.18304 | -56.36795 | 34935 ft | 437 kts | 184° |
| 2026-05-07 17:05 | -33.24477 | -56.35840 | 34945 ft | 439 kts | 183° |
| 2026-05-07 17:05 | -33.30611 | -56.34886 | 34941 ft | 439 kts | 182° |
| 2026-05-07 17:06 | -33.36659 | -56.33921 | 34940 ft | 438 kts | 183° |
| 2026-05-07 17:06 | -33.42778 | -56.32962 | 34945 ft | 439 kts | 183° |
| 2026-05-07 17:07 | -33.48883 | -56.32009 | 34943 ft | 439 kts | 183° |
| 2026-05-07 17:07 | -33.54951 | -56.31061 | 34945 ft | 439 kts | 183° |
| 2026-05-07 17:08 | -33.61068 | -56.30104 | 34941 ft | 440 kts | 183° |
| 2026-05-07 17:08 | -33.67192 | -56.29144 | 34945 ft | 440 kts | 183° |
| 2026-05-07 17:09 | -33.73282 | -56.28189 | 34944 ft | 439 kts | 183° |
| 2026-05-07 17:09 | -33.79388 | -56.27229 | 34942 ft | 440 kts | 183° |
| 2026-05-07 17:10 | -33.85458 | -56.26274 | 34944 ft | 439 kts | 183° |
| 2026-05-07 17:10 | -33.91564 | -56.25312 | 34941 ft | 440 kts | 183° |
| 2026-05-07 17:11 | -33.97681 | -56.24345 | 34754 ft | 435 kts | 183° |
| 2026-05-07 17:11 | -34.00647 | -56.23870 | 34471 ft | 425 kts | 183° |
| 2026-05-07 17:11 | -34.03535 | -56.23410 | 34185 ft | 416 kts | 184° |
| 2026-05-07 17:12 | -34.06406 | -56.22902 | 33848 ft | 411 kts | 181° |
| 2026-05-07 17:12 | -34.09230 | -56.22409 | 33066 ft | 415 kts | 183° |
| 2026-05-07 17:12 | -34.12114 | -56.21959 | 32049 ft | 426 kts | 182° |
| 2026-05-07 17:12 | -34.15044 | -56.21490 | 31067 ft | 435 kts | 181° |
| 2026-05-07 17:13 | -34.18082 | -56.20987 | 30071 ft | 443 kts | 181° |
| 2026-05-07 17:13 | -34.21146 | -56.20472 | 29081 ft | 450 kts | 180° |
| 2026-05-07 17:13 | -34.24242 | -56.19949 | 28092 ft | 456 kts | 180° |
| 2026-05-07 17:13 | -34.27394 | -56.19416 | 27096 ft | 460 kts | 179° |
| 2026-05-07 17:14 | -34.30583 | -56.18877 | 26095 ft | 464 kts | 179° |
| 2026-05-07 17:14 | -34.33791 | -56.18335 | 25092 ft | 466 kts | 178° |
| 2026-05-07 17:14 | -34.36982 | -56.17794 | 24099 ft | 467 kts | 178° |
| 2026-05-07 17:14 | -34.40210 | -56.17248 | 23088 ft | 466 kts | 177° |
| 2026-05-07 17:15 | -34.43393 | -56.16703 | 22084 ft | 459 kts | 177° |
| 2026-05-07 17:15 | -34.46542 | -56.16158 | 21074 ft | 452 kts | 176° |
| 2026-05-07 17:15 | -34.49638 | -56.15616 | 20066 ft | 445 kts | 176° |
| 2026-05-07 17:15 | -34.52724 | -56.15071 | 19047 ft | 438 kts | 176° |
| 2026-05-07 17:16 | -34.55712 | -56.14610 | 18035 ft | 429 kts | 182° |
| 2026-05-07 17:16 | -34.57642 | -56.14800 | 17380 ft | 417 kts | 195° |
| 2026-05-07 17:16 | -34.61394 | -56.15888 | 16036 ft | 410 kts | 194° |
| 2026-05-07 17:16 | -34.64184 | -56.16455 | 15032 ft | 406 kts | 191° |
| 2026-05-07 17:17 | -34.66991 | -56.16904 | 14020 ft | 402 kts | 189° |
| 2026-05-07 17:17 | -34.69727 | -56.17294 | 13025 ft | 398 kts | 188° |
| 2026-05-07 17:17 | -34.72485 | -56.17665 | 12013 ft | 394 kts | 187° |
| 2026-05-07 17:17 | -34.75217 | -56.18023 | 11002 ft | 390 kts | 187° |
| 2026-05-07 17:18 | -34.77903 | -56.18371 | 9999 ft | 387 kts | 187° |
| 2026-05-07 17:18 | -34.80555 | -56.18713 | 9000 ft | 384 kts | 187° |
| 2026-05-07 17:18 | -34.83196 | -56.19053 | 7998 ft | 381 kts | 187° |
| 2026-05-07 17:18 | -34.85847 | -56.19394 | 6985 ft | 378 kts | 187° |
| 2026-05-07 17:19 | -34.88440 | -56.19728 | 5985 ft | 375 kts | 187° |
| 2026-05-07 17:19 | -34.91045 | -56.20063 | 5019 ft | 370 kts | 187° |
| 2026-05-07 17:19 | -34.93547 | -56.20385 | 4753 ft | 346 kts | 187° |
| 2026-05-07 17:19 | -34.95879 | -56.20684 | 4615 ft | 323 kts | 187° |
| 2026-05-07 17:20 | -34.98045 | -56.20963 | 4478 ft | 303 kts | 187° |
| 2026-05-07 17:20 | -35.00083 | -56.21225 | 4470 ft | 280 kts | 187° |
| 2026-05-07 17:20 | -35.01987 | -56.21471 | 4498 ft | 270 kts | 187° |
| 2026-05-07 17:20 | -35.03863 | -56.21713 | 4491 ft | 269 kts | 187° |
| 2026-05-07 17:21 | -35.05716 | -56.21952 | 4490 ft | 261 kts | 187° |
| 2026-05-07 17:21 | -35.07515 | -56.22046 | 4479 ft | 253 kts | 170° |
| 2026-05-07 17:21 | -35.09071 | -56.21042 | 4456 ft | 255 kts | 132° |
| 2026-05-07 17:21 | -35.09811 | -56.19103 | 4443 ft | 255 kts | 94° |
| 2026-05-07 17:22 | -35.09447 | -56.17028 | 4446 ft | 252 kts | 56° |
| 2026-05-07 17:22 | -35.08157 | -56.15631 | 4465 ft | 248 kts | 27° |
| 2026-05-07 17:22 | -35.06650 | -56.14502 | 4437 ft | 256 kts | 33° |
| 2026-05-07 17:22 | -35.05189 | -56.13186 | 4435 ft | 258 kts | 37° |
| 2026-05-07 17:23 | -35.03805 | -56.11742 | 4308 ft | 263 kts | 45° |
| 2026-05-07 17:23 | -35.02652 | -56.09989 | 4134 ft | 261 kts | 51° |
| 2026-05-07 17:23 | -35.01564 | -56.08202 | 3979 ft | 259 kts | 52° |
| 2026-05-07 17:23 | -35.00492 | -56.06401 | 3828 ft | 258 kts | 52° |
| 2026-05-07 17:24 | -34.99447 | -56.04619 | 3680 ft | 258 kts | 53° |
| 2026-05-07 17:24 | -34.98402 | -56.02816 | 3529 ft | 257 kts | 53° |
| 2026-05-07 17:24 | -34.97358 | -56.01006 | 3377 ft | 257 kts | 53° |
| 2026-05-07 17:24 | -34.96674 | -55.99815 | 3278 ft | 256 kts | 53° |
| 2026-05-07 17:25 | -34.95311 | -55.97438 | 3078 ft | 255 kts | 53° |
| 2026-05-07 17:25 | -34.94291 | -55.95655 | 2928 ft | 254 kts | 53° |
| 2026-05-07 17:25 | -34.93259 | -55.93852 | 2775 ft | 254 kts | 53° |
| 2026-05-07 17:25 | -34.92252 | -55.92089 | 2626 ft | 253 kts | 53° |
| 2026-05-07 17:26 | -34.91232 | -55.90306 | 2475 ft | 252 kts | 53° |
| 2026-05-07 17:26 | -34.90217 | -55.88531 | 2323 ft | 252 kts | 53° |
| 2026-05-07 17:26 | -34.89204 | -55.86761 | 2173 ft | 251 kts | 53° |
| 2026-05-07 17:26 | -34.88225 | -55.85049 | 2033 ft | 243 kts | 53° |
| 2026-05-07 17:27 | -34.87259 | -55.83359 | 1872 ft | 234 kts | 53° |
| 2026-05-07 17:27 | -34.86332 | -55.81740 | 1712 ft | 227 kts | 53° |
| 2026-05-07 17:27 | -34.85295 | -55.80268 | 1542 ft | 226 kts | 33° |
| 2026-05-07 17:27 | -34.83877 | -55.79557 | 1428 ft | 220 kts | 6° |
| 2026-05-07 17:28 | -34.82364 | -55.79709 | 1425 ft | 216 kts | 340° |
| 2026-05-07 17:28 | -34.81079 | -55.80681 | 1439 ft | 218 kts | 314° |
| 2026-05-07 17:28 | -34.80303 | -55.82284 | 1457 ft | 220 kts | 287° |
| 2026-05-07 17:28 | -34.79995 | -55.84120 | 1473 ft | 219 kts | 282° |
| 2026-05-07 17:29 | -34.79719 | -55.85903 | 1489 ft | 199 kts | 282° |
| 2026-05-07 17:29 | -34.79482 | -55.87470 | 1484 ft | 175 kts | 282° |
| 2026-05-07 17:29 | -34.79281 | -55.88827 | 1529 ft | 147 kts | 282° |
| 2026-05-07 17:29 | -34.79096 | -55.90063 | 1488 ft | 149 kts | 282° |
| 2026-05-07 17:30 | -34.78915 | -55.91296 | 1472 ft | 147 kts | 282° |
| 2026-05-07 17:30 | -34.78736 | -55.92522 | 1461 ft | 146 kts | 282° |
| 2026-05-07 17:30 | -34.78608 | -55.93756 | 1447 ft | 147 kts | 270° |
| 2026-05-07 17:30 | -34.78898 | -55.94953 | 1457 ft | 150 kts | 242° |
| 2026-05-07 17:31 | -34.79516 | -55.95998 | 1470 ft | 152 kts | 236° |
| 2026-05-07 17:31 | -34.80152 | -55.97044 | 1467 ft | 152 kts | 236° |
| 2026-05-07 17:31 | -34.80799 | -55.98101 | 1289 ft | 156 kts | 236° |
| 2026-05-07 17:31 | -34.81464 | -55.99168 | 910 ft | 160 kts | 238° |
| 2026-05-07 17:32 | -34.82134 | -56.00301 | 426 ft | 174 kts | 235° |
| 2026-05-07 17:32 | -34.82872 | -56.01493 | 140 ft | 174 kts | 237° |
| 2026-05-07 17:32 | -34.83540 | -56.02601 | 73 ft | 133 kts | 229° |
| 2026-05-07 17:32 | -34.83875 | -56.03145 | 62 ft | 61 kts | 236° |